Time;durP1;ratioP1;P1;durP2;ratioP2;P2;SDS_P1;SDS_P2;PMS_P1;PMS_P2;Temp;Humidity;BMP_temperature;BMP_pressure;BME280_temperature;BME280_humidity;BME280_pressure;Samples;Min_cycle;Max_cycle;Signal;HPM_P1;HPM_P2
2023/03/27 00:01:19;;;;;;;22.05;13.25;;;;;;;19.12;46.51;101643.72;5038540;28;20118;-39
2023/03/27 00:03:48;;;;;;;20.23;12.45;;;;;;;19.10;46.06;101643.03;5038039;28;20136;-40
2023/03/27 00:06:17;;;;;;;21.70;12.70;;;;;;;19.09;46.75;101650.19;5038978;28;20064;-40
2023/03/27 00:08:45;;;;;;;19.23;11.88;;;;;;;19.09;46.51;101650.19;5035244;28;20052;-40
2023/03/27 00:11:13;;;;;;;20.35;11.93;;;;;;;19.09;46.38;101652.88;5038332;28;20056;-39
2023/03/27 00:13:40;;;;;;;18.65;11.10;;;;;;;19.08;46.16;101653.88;5035899;28;20102;-40
2023/03/27 00:16:16;;;;;;;19.98;11.30;;;;;;;19.09;46.77;101657.41;5018438;28;20079;-39
2023/03/27 00:18:43;;;;;;;16.98;10.50;;;;;;;19.09;46.51;101669.00;5035030;28;20045;-40
2023/03/27 00:21:10;;;;;;;18.65;11.00;;;;;;;19.09;46.38;101677.06;5037773;28;20092;-39
2023/03/27 00:23:37;;;;;;;15.80;10.55;;;;;;;19.09;46.58;101676.22;5035274;28;20421;-40
2023/03/27 00:26:04;;;;;;;17.25;10.57;;;;;;;19.10;46.23;101678.78;5037445;28;20074;-39
2023/03/27 00:28:31;;;;;;;17.77;10.65;;;;;;;19.09;46.45;101686.97;5036235;28;20424;-39
2023/03/27 00:30:57;;;;;;;15.35;9.57;;;;;;;19.09;46.27;101690.50;5034852;28;20045;-40
2023/03/27 00:33:25;;;;;;;17.85;10.50;;;;;;;19.07;46.29;101700.56;5000241;28;20152;-39
2023/03/27 00:35:52;;;;;;;15.07;9.85;;;;;;;19.06;46.55;101696.19;5044843;28;20041;-40
2023/03/27 00:38:19;;;;;;;14.85;9.07;;;;;;;19.05;46.49;101707.91;5012057;28;20148;-40
2023/03/27 00:40:49;;;;;;;16.40;9.77;;;;;;;19.03;46.20;101704.50;5017419;28;20409;-40
2023/03/27 00:43:20;;;;;;;15.85;10.05;;;;;;;19.03;46.74;101706.34;5015003;28;20060;-40
2023/03/27 00:45:50;;;;;;;14.18;9.10;;;;;;;19.02;46.19;101702.81;5014182;28;20045;-39
2023/03/27 00:48:19;;;;;;;15.27;9.15;;;;;;;19.00;46.89;101712.84;5013322;28;20053;-40
2023/03/27 00:50:48;;;;;;;16.15;9.70;;;;;;;18.98;46.10;101718.38;5016559;28;20403;-40
2023/03/27 00:53:18;;;;;;;15.80;9.18;;;;;;;18.98;46.51;101717.53;5012450;28;20310;-40
2023/03/27 00:55:48;;;;;;;12.02;8.27;;;;;;;18.97;46.57;101729.25;5020428;28;20061;-39
2023/03/27 00:58:21;;;;;;;14.05;8.77;;;;;;;18.96;46.48;101732.91;5037945;28;20067;-39
2023/03/27 01:00:51;;;;;;;14.27;8.88;;;;;;;18.93;46.59;101727.81;5039957;28;20055;-39
2023/03/27 01:03:20;;;;;;;14.07;8.27;;;;;;;18.93;46.83;101728.66;5038947;28;20040;-40
2023/03/27 01:05:49;;;;;;;13.35;8.13;;;;;;;18.91;46.70;101736.03;5034581;28;20068;-39
2023/03/27 01:08:16;;;;;;;14.45;8.30;;;;;;;18.90;46.91;101741.53;5034645;28;20234;-40
2023/03/27 01:11:02;;;;;;;12.43;8.05;;;;;;;18.87;46.45;101739.97;5036044;28;20185;-40
2023/03/27 01:13:57;;;;;;;11.27;7.07;;;;;;;18.87;46.27;101742.66;5028528;28;20045;-40
2023/03/27 01:16:48;;;;;;;12.23;6.93;;;;;;;18.86;46.99;101743.66;5019591;28;20078;-40
2023/03/27 01:19:56;;;;;;;12.13;7.13;;;;;;;18.84;46.70;101739.41;5039566;28;20057;-39
2023/03/27 01:22:34;;;;;;;11.55;7.35;;;;;;;18.85;46.65;101743.78;5039125;28;20056;-40
2023/03/27 01:25:25;;;;;;;11.20;7.22;;;;;;;18.83;46.79;101749.28;5032327;28;20047;-40
2023/03/27 01:28:25;;;;;;;10.70;7.40;;;;;;;18.81;47.11;101745.88;5031974;28;20139;-40
2023/03/27 01:31:21;;;;;;;12.10;6.50;;;;;;;18.82;46.98;101746.75;5037405;28;20428;-40
2023/03/27 01:34:05;;;;;;;10.90;6.70;;;;;;;18.80;46.98;101746.03;4998360;28;20624;-39
2023/03/27 01:36:45;;;;;;;12.25;6.85;;;;;;;18.79;46.76;101747.88;5036969;28;20352;-40
2023/03/27 01:39:15;;;;;;;10.00;5.30;;;;;;;18.80;47.08;101754.09;5033523;28;20183;-39
2023/03/27 01:41:52;;;;;;;10.63;6.95;;;;;;;18.78;47.08;101756.91;5037378;28;20299;-39
2023/03/27 01:44:30;;;;;;;10.43;6.45;;;;;;;18.78;46.84;101756.06;5032587;28;20540;-39
2023/03/27 01:47:26;;;;;;;10.32;5.78;;;;;;;18.78;46.65;101761.44;5037377;28;20061;-38
2023/03/27 01:50:20;;;;;;;9.73;5.75;;;;;;;18.76;46.91;101758.03;5038189;28;20064;-38
2023/03/27 01:52:55;;;;;;;9.35;5.30;;;;;;;18.78;46.66;101764.13;5033172;28;20048;-38
2023/03/27 01:55:26;;;;;;;10.43;5.53;;;;;;;18.77;46.79;101760.56;5002068;28;20072;-39
2023/03/27 01:58:02;;;;;;;11.20;6.20;;;;;;;18.75;46.91;101770.63;5042532;28;20074;-39
2023/03/27 02:00:30;;;;;;;7.30;4.47;;;;;;;18.76;46.72;101780.34;5038130;28;20045;-38
2023/03/27 02:03:32;;;;;;;8.35;4.80;;;;;;;18.74;46.75;101782.34;5039671;28;20483;-39
2023/03/27 02:06:15;;;;;;;8.80;5.35;;;;;;;18.72;46.60;101785.16;5038288;28;20056;-39
2023/03/27 02:08:52;;;;;;;9.60;5.35;;;;;;;18.73;47.00;101791.38;5036669;28;20079;-39
2023/03/27 02:11:21;;;;;;;9.57;5.78;;;;;;;18.72;46.83;101793.22;5039713;28;20252;-39
2023/03/27 02:13:54;;;;;;;9.18;4.85;;;;;;;18.72;46.87;101800.41;5000621;28;20507;-38
2023/03/27 02:16:27;;;;;;;6.93;4.40;;;;;;;18.71;46.80;101798.72;5032017;28;20140;-39
2023/03/27 02:18:59;;;;;;;7.67;4.67;;;;;;;18.71;46.89;101807.63;5017346;28;20099;-39
2023/03/27 02:21:26;;;;;;;8.30;4.68;;;;;;;18.70;46.63;101807.78;5011940;28;20670;-39
2023/03/27 02:23:55;;;;;;;8.07;4.57;;;;;;;18.68;46.66;101804.31;5020714;28;20044;-38
2023/03/27 02:26:22;;;;;;;7.70;5.00;;;;;;;18.66;47.06;101807.16;5024162;28;20057;-38
2023/03/27 02:29:27;;;;;;;7.82;4.78;;;;;;;18.65;46.81;101816.22;5020641;28;20057;-39
2023/03/27 02:32:10;;;;;;;7.28;4.55;;;;;;;18.66;46.61;101812.53;5018671;28;20050;-38
2023/03/27 02:34:49;;;;;;;7.93;4.27;;;;;;;18.65;46.54;101826.06;4999208;28;20061;-38
2023/03/27 02:37:35;;;;;;;6.85;3.90;;;;;;;18.65;46.55;101823.38;5043134;28;20052;-39
2023/03/27 02:40:13;;;;;;;6.18;3.78;;;;;;;18.64;46.79;101824.38;5036551;28;20045;-38
2023/03/27 02:43:08;;;;;;;6.72;4.03;;;;;;;18.62;47.03;101829.88;5036487;28;20056;-39
2023/03/27 02:45:53;;;;;;;5.88;3.85;;;;;;;18.60;46.74;101825.63;5035028;28;20041;-39
2023/03/27 02:48:37;;;;;;;5.22;3.55;;;;;;;18.58;46.86;101831.13;5032942;28;20283;-39
2023/03/27 02:51:46;;;;;;;4.85;3.17;;;;;;;18.55;46.97;101828.72;5034756;28;20180;-38
2023/03/27 02:54:27;;;;;;;6.63;3.83;;;;;;;18.56;47.06;101832.25;5028463;28;20404;-38
2023/03/27 02:57:00;;;;;;;4.97;3.50;;;;;;;18.57;46.78;101844.69;5035639;28;20067;-38
2023/03/27 02:59:41;;;;;;;5.30;3.42;;;;;;;18.56;46.87;101843.84;5032768;28;20094;-39
2023/03/27 03:02:15;;;;;;;5.72;3.50;;;;;;;18.53;47.10;101841.41;5032875;28;20075;-39
2023/03/27 03:04:49;;;;;;;5.13;3.13;;;;;;;18.53;46.64;101844.09;5034388;28;20496;-39
2023/03/27 03:07:17;;;;;;;6.13;3.72;;;;;;;18.53;46.93;101849.47;5033969;28;20068;-39
2023/03/27 03:09:44;;;;;;;6.18;3.65;;;;;;;18.53;46.88;101856.66;5029829;28;20504;-39
2023/03/27 03:12:11;;;;;;;5.00;3.20;;;;;;;18.51;46.67;101862.19;5031333;28;20457;-39
2023/03/27 03:14:42;;;;;;;5.28;3.22;;;;;;;18.49;46.49;101859.63;5002247;28;20061;-39
2023/03/27 03:17:10;;;;;;;5.32;3.28;;;;;;;18.50;46.89;101868.53;5047817;28;20080;-38
2023/03/27 03:19:37;;;;;;;6.53;3.22;;;;;;;18.49;46.59;101869.50;5037342;28;20044;-39
2023/03/27 03:22:05;;;;;;;5.90;3.15;;;;;;;18.47;46.58;101875.00;5039166;28;20242;-39
2023/03/27 03:24:32;;;;;;;7.40;3.60;;;;;;;18.48;46.95;101883.91;5037659;28;20045;-39
2023/03/27 03:27:01;;;;;;;5.85;3.03;;;;;;;18.46;46.79;101885.91;5041414;28;20057;-39
2023/03/27 03:29:29;;;;;;;3.92;2.50;;;;;;;18.46;46.54;101883.22;5039403;28;20444;-39
2023/03/27 03:31:56;;;;;;;4.60;2.78;;;;;;;18.45;46.88;101886.84;5039575;28;20136;-39
2023/03/27 03:34:22;;;;;;;5.05;2.85;;;;;;;18.44;46.68;101888.69;5000925;28;20061;-39
2023/03/27 03:36:49;;;;;;;4.93;2.88;;;;;;;18.43;46.78;101900.41;5032717;28;20624;-39
2023/03/27 03:39:16;;;;;;;5.40;2.97;;;;;;;18.43;46.52;101892.38;5038908;28;20064;-39
2023/03/27 03:41:43;;;;;;;5.40;3.13;;;;;;;18.42;46.59;101900.56;5038607;28;20132;-39
2023/03/27 03:44:09;;;;;;;5.00;2.60;;;;;;;18.41;46.93;101902.41;5036601;28;20303;-39
2023/03/27 03:46:36;;;;;;;3.97;2.80;;;;;;;18.41;46.42;101906.88;5038333;28;20053;-39
2023/03/27 03:49:03;;;;;;;4.43;2.47;;;;;;;18.41;46.54;101909.56;5039825;28;20196;-39
2023/03/27 03:51:31;;;;;;;4.40;2.65;;;;;;;18.41;46.86;101914.94;5038341;28;20272;-39
2023/03/27 03:53:58;;;;;;;4.22;2.60;;;;;;;18.42;46.97;101922.03;4999116;28;20619;-40
2023/03/27 03:56:26;;;;;;;4.07;2.70;;;;;;;18.42;46.82;101922.03;5016865;28;20785;-41
2023/03/27 03:58:53;;;;;;;4.68;2.60;;;;;;;18.45;46.70;101917.25;5021263;28;20045;-40
2023/03/27 04:01:21;;;;;;;4.55;2.75;;;;;;;18.52;47.24;101922.09;5020104;28;20164;-39
2023/03/27 04:03:48;;;;;;;3.88;2.70;;;;;;;18.58;47.04;101924.28;5016454;28;20053;-40
2023/03/27 04:06:24;;;;;;;5.45;2.58;;;;;;;18.68;46.77;101925.16;5017858;28;20054;-39
2023/03/27 04:08:51;;;;;;;3.45;2.00;;;;;;;18.77;46.41;101921.72;5014620;28;20262;-39
2023/03/27 04:11:18;;;;;;;3.63;2.33;;;;;;;18.84;46.67;101928.28;5018082;28;20061;-39
2023/03/27 04:13:45;;;;;;;4.28;2.10;;;;;;;18.91;45.99;101933.97;5014730;28;20045;-39
2023/03/27 04:16:12;;;;;;;4.20;2.15;;;;;;;18.96;45.57;101940.63;5001153;28;20065;-39
2023/03/27 04:18:40;;;;;;;4.15;2.45;;;;;;;18.98;45.64;101938.69;5032966;28;20060;-39
2023/03/27 04:21:13;;;;;;;3.65;2.55;;;;;;;19.02;45.95;101947.34;5031244;28;20469;-39
2023/03/27 04:23:41;;;;;;;3.08;2.10;;;;;;;19.04;45.81;101945.34;5038610;28;20052;-39
2023/03/27 04:26:10;;;;;;;3.58;2.15;;;;;;;19.07;45.81;101947.78;5041111;28;20445;-39
2023/03/27 04:28:38;;;;;;;3.33;2.15;;;;;;;19.08;45.75;101957.53;5040900;28;20288;-39
2023/03/27 04:31:06;;;;;;;4.22;2.25;;;;;;;19.08;45.09;101967.44;5040875;28;20049;-39
2023/03/27 04:33:38;;;;;;;3.88;2.33;;;;;;;19.09;45.76;101972.66;5038177;28;20052;-40
2023/03/27 04:36:07;;;;;;;4.47;2.60;;;;;;;19.09;45.85;101988.78;5019358;28;20160;-39
2023/03/27 04:38:39;;;;;;;3.95;2.42;;;;;;;19.08;45.51;101983.56;5041648;28;20102;-39
2023/03/27 04:41:06;;;;;;;4.78;2.90;;;;;;;19.05;45.78;101983.81;5039964;28;20049;-40
2023/03/27 04:43:35;;;;;;;6.68;3.13;;;;;;;19.01;45.52;101985.91;5040393;28;20057;-39
2023/03/27 04:46:05;;;;;;;7.53;3.42;;;;;;;18.98;46.31;101978.13;5040789;28;20660;-39
2023/03/27 04:48:32;;;;;;;5.57;3.45;;;;;;;18.94;45.84;101984.75;5039244;28;20143;-39
2023/03/27 04:50:59;;;;;;;5.75;3.45;;;;;;;18.88;45.96;101990.66;5039615;28;20052;-39
2023/03/27 04:53:29;;;;;;;6.63;3.65;;;;;;;18.83;46.39;101999.09;5042114;28;20441;-39
2023/03/27 04:55:56;;;;;;;6.70;3.85;;;;;;;18.74;46.29;102000.75;5006932;28;20613;-41
2023/03/27 04:58:24;;;;;;;7.25;4.57;;;;;;;18.68;46.34;102001.22;5038377;28;20055;-39
2023/03/27 05:00:54;;;;;;;7.38;4.40;;;;;;;18.66;46.55;102005.03;5038262;28;20052;-39
2023/03/27 05:03:27;;;;;;;7.60;4.72;;;;;;;18.64;46.36;102001.59;5037108;28;20723;-39
2023/03/27 05:05:54;;;;;;;8.88;5.30;;;;;;;18.63;46.41;102003.44;5035327;28;20056;-39
2023/03/27 05:08:20;;;;;;;7.80;4.40;;;;;;;18.63;46.19;102006.13;5039523;28;20183;-39
2023/03/27 05:10:47;;;;;;;8.23;5.05;;;;;;;18.64;46.06;102010.50;5035419;28;20053;-39
2023/03/27 05:13:14;;;;;;;9.65;4.93;;;;;;;18.65;46.54;102004.19;5039603;28;20077;-39
2023/03/27 05:15:41;;;;;;;8.13;4.93;;;;;;;18.68;46.51;102003.03;4992453;28;20476;-40
2023/03/27 05:18:07;;;;;;;7.88;5.00;;;;;;;18.69;46.61;102004.75;5040386;28;20171;-39
2023/03/27 05:20:35;;;;;;;8.55;5.28;;;;;;;18.69;46.09;102015.47;5040446;28;20053;-39
2023/03/27 05:23:02;;;;;;;9.25;5.80;;;;;;;18.70;46.19;102012.72;5041468;28;20048;-40
2023/03/27 05:25:29;;;;;;;8.88;5.38;;;;;;;18.70;45.95;102015.41;5039223;28;20066;-39
2023/03/27 05:27:56;;;;;;;11.60;5.88;;;;;;;18.69;45.93;102016.38;5038965;28;20102;-40
2023/03/27 05:30:25;;;;;;;9.50;5.85;;;;;;;18.70;46.29;102020.78;5039626;28;20053;-39
2023/03/27 05:32:52;;;;;;;10.27;5.70;;;;;;;18.71;45.99;102018.94;5036881;28;20460;-39
2023/03/27 05:35:22;;;;;;;10.48;5.90;;;;;;;18.69;46.35;102021.72;5000639;28;20518;-39
2023/03/27 05:37:51;;;;;;;10.13;5.85;;;;;;;18.68;46.18;102020.00;5038750;28;20059;-39
2023/03/27 05:40:26;;;;;;;9.18;5.60;;;;;;;18.68;45.78;102022.69;5039615;28;20080;-39
2023/03/27 05:42:55;;;;;;;8.32;5.30;;;;;;;18.68;45.72;102024.53;5039983;28;20049;-38
2023/03/27 05:45:22;;;;;;;8.43;5.70;;;;;;;18.67;45.95;102023.69;5039805;28;20049;-39
2023/03/27 05:47:55;;;;;;;9.82;5.93;;;;;;;18.65;46.09;102036.41;5037847;28;20060;-38
2023/03/27 05:50:27;;;;;;;8.55;5.80;;;;;;;18.68;46.28;102030.75;5038578;28;20147;-38
2023/03/27 05:52:59;;;;;;;9.05;5.63;;;;;;;18.75;46.45;102036.50;5039625;28;20263;-38
2023/03/27 05:55:26;;;;;;;9.68;6.32;;;;;;;18.83;46.03;102039.38;4996066;28;20060;-38
2023/03/27 05:57:53;;;;;;;8.73;5.93;;;;;;;18.94;45.98;102035.81;5034241;28;20048;-39
2023/03/27 06:00:26;;;;;;;10.30;6.28;;;;;;;19.03;45.96;102051.13;5036413;28;20334;-39
2023/03/27 06:02:55;;;;;;;9.30;6.03;;;;;;;19.11;45.39;102040.59;5036439;28;20110;-39
2023/03/27 06:05:22;;;;;;;9.50;6.25;;;;;;;19.16;45.41;102043.72;5037794;28;20056;-39
2023/03/27 06:07:50;;;;;;;9.52;5.88;;;;;;;19.18;45.76;102047.13;5034630;28;20059;-39
2023/03/27 06:10:19;;;;;;;8.65;5.40;;;;;;;19.17;45.41;102042.72;5036151;28;20180;-40
2023/03/27 06:12:47;;;;;;;9.82;5.30;;;;;;;19.16;45.62;102051.78;5033507;28;20406;-39
2023/03/27 06:15:14;;;;;;;9.15;5.70;;;;;;;19.14;45.60;102055.59;4996916;28;20060;-40
2023/03/27 06:17:42;;;;;;;9.65;5.47;;;;;;;19.11;46.21;102059.41;5045686;28;20057;-40
2023/03/27 06:20:11;;;;;;;8.27;5.18;;;;;;;19.09;45.89;102061.34;5033055;28;20114;-40
2023/03/27 06:22:43;;;;;;;8.48;5.47;;;;;;;19.09;45.89;102065.88;5032059;28;20048;-39
2023/03/27 06:25:10;;;;;;;7.97;4.90;;;;;;;19.06;45.00;102072.38;5041051;28;20164;-39
2023/03/27 06:27:36;;;;;;;6.72;4.60;;;;;;;19.06;45.10;102072.38;5036910;28;20048;-39
2023/03/27 06:30:04;;;;;;;8.20;5.25;;;;;;;19.05;45.29;102083.22;5037529;28;20131;-40
2023/03/27 06:32:30;;;;;;;6.70;4.57;;;;;;;19.06;45.06;102101.09;5034149;28;20242;-40
2023/03/27 06:34:57;;;;;;;7.35;4.47;;;;;;;19.06;44.83;102114.53;5035993;28;20436;-40
2023/03/27 06:37:23;;;;;;;8.93;4.43;;;;;;;19.05;44.71;102110.09;4995124;28;20057;-39
2023/03/27 06:39:50;;;;;;;9.15;4.68;;;;;;;19.03;44.75;102094.13;5031872;28;20057;-40
2023/03/27 06:42:17;;;;;;;9.40;4.63;;;;;;;19.02;44.73;102096.94;5038750;28;20291;-40
2023/03/27 06:44:44;;;;;;;8.93;4.07;;;;;;;18.99;44.71;102101.59;5036048;28;20048;-39
2023/03/27 06:47:11;;;;;;;6.43;4.10;;;;;;;18.99;44.29;102106.97;5035004;28;20059;-39
2023/03/27 06:49:38;;;;;;;8.95;4.90;;;;;;;18.99;44.97;102106.97;5040398;28;20452;-40
2023/03/27 06:52:05;;;;;;;7.03;3.80;;;;;;;18.99;45.49;102108.81;5039209;28;20055;-39
2023/03/27 06:54:32;;;;;;;7.88;4.45;;;;;;;18.99;44.64;102109.66;5016080;28;20133;-40
2023/03/27 06:57:00;;;;;;;7.38;3.50;;;;;;;19.00;44.58;102115.88;5035491;28;20061;-39
2023/03/27 06:59:27;;;;;;;7.28;3.70;;;;;;;19.02;44.03;102107.69;5038030;28;20058;-39
2023/03/27 07:01:53;;;;;;;6.93;3.70;;;;;;;19.02;44.27;102115.75;5042861;28;20079;-40
2023/03/27 07:04:20;;;;;;;7.20;3.55;;;;;;;19.04;44.20;102120.00;5041689;28;20163;-39
2023/03/27 07:06:47;;;;;;;5.93;3.20;;;;;;;19.04;44.25;102117.31;5038879;28;20057;-39
2023/03/27 07:09:14;;;;;;;6.85;3.47;;;;;;;19.05;44.30;102123.53;5036889;28;20057;-39
2023/03/27 07:11:41;;;;;;;6.72;3.25;;;;;;;19.05;43.85;102124.38;5040233;28;20057;-39
2023/03/27 07:14:08;;;;;;;5.40;3.15;;;;;;;19.05;44.17;102127.06;5040864;28;20379;-39
2023/03/27 07:16:34;;;;;;;5.78;3.33;;;;;;;19.06;43.59;102134.19;5042365;28;20171;-39
2023/03/27 07:19:01;;;;;;;7.38;3.33;;;;;;;19.07;43.86;102137.72;5038759;28;20057;-39
2023/03/27 07:21:28;;;;;;;5.32;2.78;;;;;;;19.06;43.22;102133.34;5041684;28;20059;-39
2023/03/27 07:23:55;;;;;;;5.65;3.13;;;;;;;19.06;43.08;102144.94;5040242;28;20110;-39
2023/03/27 07:26:21;;;;;;;5.53;2.85;;;;;;;19.04;43.08;102148.72;5039591;28;20432;-40
2023/03/27 07:28:50;;;;;;;4.90;2.70;;;;;;;19.04;43.16;102146.88;5039829;28;20057;-39
2023/03/27 07:31:17;;;;;;;4.45;2.58;;;;;;;19.03;43.01;102145.19;5036595;28;20049;-39
2023/03/27 07:33:47;;;;;;;3.90;2.20;;;;;;;19.03;42.60;102155.94;5038720;28;20052;-39
2023/03/27 07:36:15;;;;;;;4.05;2.25;;;;;;;19.03;42.50;102155.06;5036805;28;20452;-39
2023/03/27 07:38:41;;;;;;;5.03;2.28;;;;;;;19.03;42.84;102153.25;5038224;28;20083;-39
2023/03/27 07:41:08;;;;;;;3.40;1.90;;;;;;;19.05;42.47;102155.78;5041643;28;20053;-39
2023/03/27 07:43:34;;;;;;;4.88;2.40;;;;;;;19.04;42.25;102168.38;5039367;28;20041;-40
2023/03/27 07:46:02;;;;;;;7.35;2.40;;;;;;;19.06;42.37;102166.44;5039432;28;20045;-39
2023/03/27 07:48:29;;;;;;;5.03;2.10;;;;;;;19.08;42.29;102177.03;5042151;28;20052;-39
2023/03/27 07:50:57;;;;;;;5.15;2.20;;;;;;;19.08;41.76;102190.47;5039227;28;20635;-40
2023/03/27 07:53:38;;;;;;;5.78;1.90;;;;;;;19.08;41.57;102198.53;5036338;28;20064;-39
2023/03/27 07:56:07;;;;;;;3.83;1.83;;;;;;;19.06;41.72;102196.00;5039645;28;20052;-39
2023/03/27 07:58:34;;;;;;;6.03;2.10;;;;;;;19.05;41.51;102199.63;5039476;28;20084;-40
2023/03/27 08:01:01;;;;;;;3.83;1.88;;;;;;;19.03;41.66;102196.25;5037598;28;20313;-40
2023/03/27 08:03:29;;;;;;;5.95;1.90;;;;;;;19.02;41.54;102204.44;5042113;28;20053;-38
2023/03/27 08:05:58;;;;;;;3.58;1.70;;;;;;;18.99;41.61;102200.16;5044501;28;20114;-39
2023/03/27 08:08:26;;;;;;;3.92;1.70;;;;;;;18.97;41.70;102205.66;5040478;28;20124;-39
2023/03/27 08:10:56;;;;;;;3.70;1.70;;;;;;;18.97;42.08;102205.66;5044191;28;20456;-39
2023/03/27 08:13:23;;;;;;;4.78;1.60;;;;;;;19.00;41.97;102209.91;5043531;28;20052;-38
2023/03/27 08:15:50;;;;;;;5.10;1.75;;;;;;;19.02;42.40;102216.03;5042233;28;20047;-39
2023/03/27 08:18:16;;;;;;;4.25;1.42;;;;;;;19.06;42.22;102220.19;5044608;28;20059;-40
2023/03/27 08:20:44;;;;;;;5.75;1.92;;;;;;;19.10;42.24;102220.78;5043572;28;20055;-40
2023/03/27 08:23:11;;;;;;;3.47;1.70;;;;;;;19.15;42.61;102221.25;5037379;28;20053;-40
2023/03/27 08:25:37;;;;;;;3.85;1.60;;;;;;;19.17;42.56;102225.50;5044687;28;20131;-40
2023/03/27 08:28:04;;;;;;;4.00;1.83;;;;;;;19.19;41.89;102218.16;5039140;28;20083;-39
2023/03/27 08:30:31;;;;;;;2.78;1.45;;;;;;;19.22;42.05;102222.44;5044671;28;20150;-40
2023/03/27 08:32:58;;;;;;;2.70;1.33;;;;;;;19.24;42.37;102225.84;5040320;28;20153;-39
2023/03/27 08:35:25;;;;;;;1.85;1.15;;;;;;;19.28;42.02;102226.44;5046190;28;20163;-39
2023/03/27 08:37:52;;;;;;;3.40;1.55;;;;;;;19.30;42.21;102230.72;5041082;28;20127;-40
2023/03/27 08:40:24;;;;;;;6.28;2.38;;;;;;;19.33;41.87;102237.66;5043436;28;20106;-39
2023/03/27 08:42:55;;;;;;;5.05;1.25;;;;;;;19.36;41.77;102240.09;5044792;28;20800;-40
2023/03/27 08:45:30;;;;;;;4.60;1.45;;;;;;;19.39;41.96;102239.84;5041823;28;20045;-38
2023/03/27 08:48:06;;;;;;;3.70;1.33;;;;;;;19.41;42.12;102237.88;5042453;28;20077;-40
2023/03/27 08:50:40;;;;;;;4.10;0.98;;;;;;;19.43;42.17;102242.16;5039864;28;20048;-40
2023/03/27 08:53:15;;;;;;;;;;;;;;;19.45;42.23;102242.00;5041823;28;20049;-40
2023/03/27 08:55:43;;;;;;;2.30;1.17;;;;;;;19.51;41.78;102248.72;5042943;28;19971;-40
2023/03/27 08:58:29;;;;;;;2.60;1.08;;;;;;;19.50;41.71;102258.63;5041186;28;20119;-40
2023/03/27 09:01:05;;;;;;;2.97;1.00;;;;;;;19.54;42.23;102254.69;5040801;28;20171;-40
2023/03/27 09:03:46;;;;;;;1.70;0.93;;;;;;;19.56;41.55;102258.09;5038511;28;20075;-39
2023/03/27 09:06:26;;;;;;;3.08;1.20;;;;;;;19.58;41.76;102258.84;5036282;28;20662;-40
2023/03/27 09:09:08;;;;;;;2.70;1.05;;;;;;;19.62;41.88;102265.69;5042740;28;20069;-40
2023/03/27 09:11:48;;;;;;;3.22;0.82;;;;;;;19.65;42.06;102273.47;5043480;28;20056;-40
2023/03/27 09:14:21;;;;;;;2.85;1.00;;;;;;;19.68;42.41;102275.91;5041644;28;20052;-41
2023/03/27 09:16:48;;;;;;;2.15;0.98;;;;;;;19.71;41.97;102277.50;5043157;28;20468;-40
2023/03/27 09:19:26;;;;;;;1.15;0.80;;;;;;;19.72;41.62;102319.56;5039580;28;20240;-41
2023/03/27 09:22:24;;;;;;;2.67;1.00;;;;;;;19.71;41.64;102328.63;5037057;28;20227;-40
2023/03/27 09:24:56;;;;;;;3.10;0.93;;;;;;;19.74;41.60;102347.19;5043040;28;20049;-40
2023/03/27 09:27:28;;;;;;;3.10;1.10;;;;;;;19.75;40.82;102361.50;5040585;28;20061;-40
2023/03/27 09:30:02;;;;;;;2.75;1.00;;;;;;;19.75;41.54;102339.97;5040695;28;20369;-40
2023/03/27 09:32:31;;;;;;;4.03;1.02;;;;;;;19.73;41.59;102327.50;5037405;28;20049;-40
2023/03/27 09:34:59;;;;;;;2.70;0.82;;;;;;;19.71;41.69;102325.94;5042526;28;20072;-40
2023/03/27 09:37:26;;;;;;;3.03;0.98;;;;;;;19.68;41.68;102321.66;5042031;28;20494;-40
2023/03/27 09:39:54;;;;;;;1.42;0.90;;;;;;;19.67;41.29;102314.56;5042899;28;20326;-40
2023/03/27 09:42:25;;;;;;;4.18;0.90;;;;;;;19.66;41.30;102315.56;5038615;28;20065;-40
2023/03/27 09:44:58;;;;;;;2.35;0.93;;;;;;;19.69;41.75;102311.75;5039794;28;20458;-40
2023/03/27 09:47:37;;;;;;;2.65;0.90;;;;;;;19.72;41.61;102308.81;5038314;28;20058;-40
2023/03/27 09:50:45;;;;;;;2.28;0.80;;;;;;;19.79;42.39;102314.53;5039808;28;20639;-39
2023/03/27 09:53:15;;;;;;;1.92;0.80;;;;;;;19.88;42.44;102302.97;5043727;28;20140;-39
2023/03/27 09:56:04;;;;;;;2.95;1.33;;;;;;;19.96;42.37;102314.78;5044405;28;20045;-39
2023/03/27 09:58:42;;;;;;;2.53;0.90;;;;;;;20.05;42.30;102313.16;5039394;28;20051;-40
2023/03/27 10:01:15;;;;;;;3.92;1.00;;;;;;;20.12;41.85;102317.03;5040737;28;20053;-39
2023/03/27 10:03:50;;;;;;;1.77;0.77;;;;;;;20.19;42.33;102312.84;5038847;28;20053;-39
2023/03/27 10:06:29;;;;;;;1.88;0.93;;;;;;;20.28;42.24;102321.09;5042679;28;20536;-39
2023/03/27 10:08:59;;;;;;;2.83;0.73;;;;;;;20.35;41.96;102320.44;5041039;28;20096;-39
2023/03/27 10:11:31;;;;;;;3.22;1.10;;;;;;;20.41;41.63;102321.75;5042370;28;20166;-39
2023/03/27 10:14:00;;;;;;;1.70;0.88;;;;;;;20.48;41.31;102309.44;5041752;28;20150;-39
2023/03/27 10:16:28;;;;;;;1.40;0.82;;;;;;;20.54;42.00;102310.78;5037753;28;20072;-39
2023/03/27 10:18:58;;;;;;;2.22;0.93;;;;;;;20.61;41.22;102314.63;5040379;28;20052;-39
2023/03/27 10:21:34;;;;;;;2.47;0.90;;;;;;;20.64;41.48;102314.38;5042583;28;20361;-40
2023/03/27 10:24:17;;;;;;;1.27;0.80;;;;;;;20.68;41.39;102311.28;5039553;28;20095;-41
2023/03/27 10:26:46;;;;;;;1.27;0.77;;;;;;;20.74;41.61;102309.88;5038102;28;20049;-40
2023/03/27 10:29:20;;;;;;;2.42;0.90;;;;;;;20.80;40.87;102319.28;5042008;28;20053;-41
2023/03/27 10:31:50;;;;;;;1.40;0.60;;;;;;;20.83;41.11;102319.84;5036332;28;20057;-40
2023/03/27 10:34:38;;;;;;;3.22;1.27;;;;;;;20.88;41.23;102303.28;5040844;28;20356;-40
2023/03/27 10:37:32;;;;;;;3.35;0.70;;;;;;;20.90;41.17;102325.53;5038814;28;20049;-40
2023/03/27 10:40:06;;;;;;;1.80;0.68;;;;;;;20.89;40.87;102322.00;5038395;28;20057;-41
2023/03/27 10:42:34;;;;;;;;;;;;;;;20.87;39.88;102325.81;5041398;28;20056;-40
2023/03/27 10:45:01;;;;;;;2.58;0.82;;;;;;;20.88;40.50;102324.81;5039514;28;19932;-41
2023/03/27 10:47:32;;;;;;;1.70;0.60;;;;;;;20.84;40.53;102326.94;5035834;28;20064;-40
2023/03/27 10:50:21;;;;;;;3.47;0.85;;;;;;;20.85;40.15;102333.19;5042451;28;20048;-40
2023/03/27 10:53:04;;;;;;;2.28;0.80;;;;;;;20.89;40.64;102338.16;5032414;28;20410;-40
2023/03/27 10:55:50;;;;;;;3.65;0.90;;;;;;;20.94;40.30;102337.75;5039546;28;20044;-40
2023/03/27 10:58:22;;;;;;;3.20;0.90;;;;;;;20.99;40.58;102340.06;5041140;28;20136;-40
2023/03/27 11:00:57;;;;;;;2.15;0.70;;;;;;;21.03;40.29;102341.50;5041127;28;20049;-45
2023/03/27 11:03:24;;;;;;;3.05;0.60;;;;;;;21.07;40.34;102341.06;5042589;28;20084;-41
2023/03/27 11:05:53;;;;;;;2.25;0.77;;;;;;;21.11;40.07;102338.97;5035254;28;20246;-40
2023/03/27 11:08:28;;;;;;;3.38;0.80;;;;;;;21.13;39.79;102340.50;5037403;28;20455;-40
2023/03/27 11:11:01;;;;;;;1.92;0.88;;;;;;;21.16;39.78;102342.09;5040947;28;20057;-40
2023/03/27 11:13:35;;;;;;;2.57;0.70;;;;;;;21.18;40.02;102343.63;5042724;28;20060;-40
2023/03/27 11:16:19;;;;;;;1.23;0.75;;;;;;;21.23;39.67;102354.03;5040926;28;20050;-40
2023/03/27 11:18:55;;;;;;;1.88;0.80;;;;;;;21.26;39.88;102342.09;5038945;28;20481;-40
2023/03/27 11:21:42;;;;;;;0.95;0.57;;;;;;;21.30;39.98;102351.63;5038161;28;20063;-39
2023/03/27 11:24:24;;;;;;;1.58;0.85;;;;;;;21.28;39.89;102361.72;5040819;28;20176;-39
2023/03/27 11:27:03;;;;;;;1.33;0.75;;;;;;;21.27;39.96;102366.25;5041556;28;20055;-39
2023/03/27 11:29:38;;;;;;;1.92;0.63;;;;;;;21.27;39.80;102365.41;5040113;28;20049;-39
2023/03/27 11:32:18;;;;;;;2.13;0.77;;;;;;;21.29;39.42;102366.09;5034648;28;20049;-39
2023/03/27 11:34:47;;;;;;;2.22;0.60;;;;;;;21.29;39.80;102376.88;5040810;28;20049;-39
2023/03/27 11:37:27;;;;;;;2.22;0.75;;;;;;;21.27;39.39;102379.72;5044227;28;20052;-40
2023/03/27 11:40:04;;;;;;;1.80;0.60;;;;;;;21.22;38.93;102373.88;5046111;28;20048;-39
2023/03/27 11:42:35;;;;;;;3.50;0.80;;;;;;;21.23;39.24;102380.13;5044442;28;20494;-39
2023/03/27 11:45:06;;;;;;;2.50;0.70;;;;;;;21.22;39.07;102379.28;5045425;28;20130;-40
2023/03/27 11:47:54;;;;;;;1.10;0.60;;;;;;;21.19;39.36;102375.03;5044808;28;20551;-40